createdAt,value
2022-09-16T00:00:21.087Z,99.90
2022-09-16T00:02:53.606Z,99.90
2022-09-16T00:05:25.044Z,99.90
2022-09-16T00:07:55.887Z,99.90
2022-09-16T00:10:26.246Z,99.90
2022-09-16T00:12:56.186Z,99.90
2022-09-16T00:15:26.253Z,99.90
2022-09-16T00:17:56.270Z,99.90
2022-09-16T00:20:26.285Z,99.90
2022-09-16T00:22:56.485Z,99.90
2022-09-16T00:25:26.416Z,99.90
2022-09-16T00:27:56.385Z,99.90
2022-09-16T00:30:26.457Z,99.90
2022-09-16T00:32:56.488Z,99.90
2022-09-16T00:35:26.166Z,99.90
2022-09-16T00:37:55.880Z,99.90
2022-09-16T00:40:25.609Z,99.90
2022-09-16T00:42:55.283Z,99.90
2022-09-16T00:45:29.036Z,99.90
2022-09-16T00:48:01.826Z,99.90
2022-09-16T00:50:45.743Z,99.90
2022-09-16T00:53:27.119Z,99.90
2022-09-16T00:55:59.455Z,99.90
2022-09-16T00:58:47.974Z,99.90
2022-09-16T01:01:17.971Z,99.90
2022-09-16T01:03:53.383Z,99.90
2022-09-16T01:06:25.806Z,99.90
2022-09-16T01:08:56.396Z,99.90
2022-09-16T01:11:27.015Z,99.90
2022-09-16T01:14:17.806Z,99.90
2022-09-16T01:17:10.163Z,99.90
2022-09-16T01:20:04.254Z,99.90
2022-09-16T01:23:12.968Z,99.90
2022-09-16T01:26:10.827Z,99.90
2022-09-16T01:29:18.353Z,99.90
2022-09-16T01:32:07.338Z,99.90
2022-09-16T01:35:07.413Z,99.90
2022-09-16T01:38:06.675Z,99.90
2022-09-16T01:41:00.457Z,99.90
2022-09-16T01:43:57.526Z,99.90
2022-09-16T01:46:38.576Z,99.90
2022-09-16T01:49:35.233Z,99.90
2022-09-16T01:52:36.445Z,99.90
2022-09-16T01:55:10.888Z,99.90
2022-09-16T01:58:09.473Z,99.90
2022-09-16T02:00:42.545Z,99.90
2022-09-16T02:03:21.014Z,99.90
2022-09-16T02:06:02.666Z,99.90
2022-09-16T02:08:40.674Z,99.90
2022-09-16T02:11:11.737Z,99.90
2022-09-16T02:13:47.055Z,99.90
2022-09-16T02:16:21.011Z,99.90
2022-09-16T02:18:57.466Z,99.90
2022-09-16T02:21:29.666Z,99.90
2022-09-16T02:24:04.506Z,99.90
2022-09-16T02:26:40.035Z,99.90
2022-09-16T02:29:17.114Z,99.90
2022-09-16T02:31:52.388Z,99.90
2022-09-16T02:34:37.465Z,99.90
2022-09-16T02:37:25.834Z,99.90
2022-09-16T02:39:59.532Z,99.90
2022-09-16T02:42:30.513Z,99.90
2022-09-16T02:45:01.626Z,99.90
2022-09-16T02:47:39.999Z,99.90
2022-09-16T02:50:36.870Z,99.90
2022-09-16T02:53:19.526Z,99.90
2022-09-16T02:56:28.275Z,99.90
2022-09-16T02:58:59.185Z,99.90
2022-09-16T03:01:30.930Z,99.90
2022-09-16T03:04:01.213Z,99.90
2022-09-16T03:06:32.663Z,99.90
2022-09-16T03:09:04.324Z,99.90
2022-09-16T03:12:13.407Z,99.90
2022-09-16T03:15:22.297Z,99.90
2022-09-16T03:18:29.462Z,99.90
2022-09-16T03:21:11.507Z,99.90
2022-09-16T03:24:11.755Z,99.90
2022-09-16T03:27:10.258Z,99.90
2022-09-16T03:30:07.466Z,99.90
2022-09-16T03:33:04.008Z,99.90
2022-09-16T03:35:42.624Z,99.90
2022-09-16T03:38:14.238Z,99.90
2022-09-16T03:40:44.895Z,99.90
2022-09-16T03:43:16.861Z,99.90
2022-09-16T03:45:46.660Z,99.90
2022-09-16T03:48:16.554Z,99.30
2022-09-16T03:50:46.663Z,98.50
2022-09-16T03:53:16.554Z,98.50
2022-09-16T03:55:46.294Z,98.40
2022-09-16T03:58:16.036Z,98.40
2022-09-16T04:00:45.714Z,98.10
2022-09-16T04:03:15.366Z,97.60
2022-09-16T04:05:45.165Z,97.70
2022-09-16T04:08:14.864Z,97.90
2022-09-16T04:10:45.356Z,98.00
2022-09-16T04:13:15.393Z,98.10
2022-09-16T04:15:45.305Z,97.90
2022-09-16T04:18:15.057Z,97.70
2022-09-16T04:20:44.886Z,97.70
2022-09-16T04:23:14.437Z,97.60
2022-09-16T04:25:44.335Z,97.50
2022-09-16T04:28:14.233Z,97.70
2022-09-16T04:30:45.037Z,97.60
2022-09-16T04:33:14.718Z,97.50
2022-09-16T04:35:44.485Z,96.90
2022-09-16T04:38:14.104Z,96.70
2022-09-16T04:40:43.985Z,96.90
2022-09-16T04:43:14.066Z,97.10
2022-09-16T04:45:46.235Z,97.10
2022-09-16T04:48:16.216Z,97.10
2022-09-16T04:50:46.173Z,97.10
2022-09-16T04:53:16.555Z,97.10
2022-09-16T04:55:47.062Z,97.30
2022-09-16T04:58:17.646Z,97.40
2022-09-16T05:00:49.086Z,97.00
2022-09-16T05:03:20.299Z,96.80
2022-09-16T05:05:50.392Z,96.90
2022-09-16T05:08:20.446Z,97.00
2022-09-16T05:10:50.884Z,97.00
2022-09-16T05:13:21.033Z,96.80
2022-09-16T05:15:51.221Z,96.70
2022-09-16T05:18:21.041Z,96.60
2022-09-16T05:20:51.204Z,96.50
2022-09-16T05:23:20.965Z,96.60
2022-09-16T05:25:51.723Z,96.50
2022-09-16T05:28:21.656Z,96.40
2022-09-16T05:30:57.839Z,96.70
2022-09-16T05:33:33.184Z,96.80
2022-09-16T05:36:12.846Z,96.80
2022-09-16T05:38:50.729Z,96.90
2022-09-16T05:41:32.622Z,96.90
2022-09-16T05:44:03.282Z,96.90
2022-09-16T05:46:33.017Z,97.00
2022-09-16T05:49:06.057Z,97.20
2022-09-16T05:51:38.976Z,97.40
2022-09-16T05:54:09.047Z,97.50
2022-09-16T05:56:39.775Z,97.40
2022-09-16T05:59:09.574Z,97.40
2022-09-16T06:01:41.326Z,97.40
2022-09-16T06:04:13.975Z,97.50
2022-09-16T06:06:45.776Z,97.40
2022-09-16T06:09:23.044Z,97.30
2022-09-16T06:12:01.685Z,97.20
2022-09-16T06:14:33.394Z,97.00
2022-09-16T06:17:04.622Z,95.40
2022-09-16T06:19:37.796Z,94.10
2022-09-16T06:22:09.976Z,93.40
2022-09-16T06:24:39.964Z,92.90
2022-09-16T06:27:10.405Z,94.60
2022-09-16T06:29:40.546Z,96.10
2022-09-16T06:32:12.049Z,98.00
2022-09-16T06:34:42.112Z,98.90
2022-09-16T06:37:16.125Z,99.90
2022-09-16T06:39:46.620Z,99.90
2022-09-16T06:42:16.726Z,99.90
2022-09-16T06:44:47.887Z,99.90
2022-09-16T06:47:17.933Z,99.90
2022-09-16T06:49:48.593Z,99.90
2022-09-16T06:52:18.704Z,99.90
2022-09-16T06:54:49.666Z,99.90
2022-09-16T06:57:24.756Z,99.90
2022-09-16T06:59:55.513Z,99.90
2022-09-16T07:02:26.644Z,99.90
2022-09-16T07:04:58.335Z,99.90
2022-09-16T07:07:31.366Z,99.90
2022-09-16T07:10:03.023Z,99.90
2022-09-16T07:12:33.454Z,99.90
2022-09-16T07:15:05.588Z,99.90
2022-09-16T07:17:37.394Z,99.90
2022-09-16T07:20:11.808Z,99.90
2022-09-16T07:22:44.336Z,99.90
2022-09-16T07:25:16.400Z,99.90
2022-09-16T07:27:51.502Z,99.90
2022-09-16T07:30:21.225Z,99.90
2022-09-16T07:32:51.036Z,99.90
2022-09-16T07:35:20.872Z,99.90
2022-09-16T07:37:51.852Z,99.90
2022-09-16T07:40:29.042Z,99.90
2022-09-16T07:43:00.893Z,99.90
2022-09-16T07:45:30.992Z,99.90
2022-09-16T07:48:00.797Z,99.90
2022-09-16T07:50:31.604Z,99.90
2022-09-16T07:53:01.785Z,99.90
2022-09-16T07:55:31.604Z,99.90
2022-09-16T07:58:04.274Z,99.90
2022-09-16T08:00:36.557Z,99.90
2022-09-16T08:03:07.894Z,99.90
2022-09-16T08:05:39.064Z,99.90
2022-09-16T08:08:10.152Z,99.90
2022-09-16T08:10:39.944Z,99.90
2022-09-16T08:13:11.445Z,99.90
2022-09-16T08:15:41.394Z,99.90
2022-09-16T08:18:11.536Z,99.90
2022-09-16T08:20:44.043Z,99.90
2022-09-16T08:23:14.403Z,99.90
2022-09-16T08:25:47.000Z,99.90
2022-09-16T08:28:18.306Z,99.90
2022-09-16T08:30:51.265Z,99.90
2022-09-16T08:33:26.594Z,99.90
2022-09-16T08:36:19.276Z,99.90
2022-09-16T08:38:51.592Z,99.90
2022-09-16T08:41:48.603Z,99.90
2022-09-16T08:44:52.216Z,99.90
2022-09-16T08:47:56.460Z,99.90
2022-09-16T08:50:35.494Z,99.90
2022-09-16T08:53:09.893Z,99.90
2022-09-16T08:55:50.046Z,99.90
2022-09-16T08:58:29.882Z,99.90
2022-09-16T09:01:05.082Z,99.90
2022-09-16T09:03:43.727Z,99.90
2022-09-16T09:07:02.164Z,99.90
2022-09-16T09:09:58.392Z,99.90
2022-09-16T09:12:43.135Z,99.90
2022-09-16T09:15:46.305Z,99.90
2022-09-16T09:18:40.734Z,99.90
2022-09-16T09:21:33.026Z,99.90
2022-09-16T09:24:40.213Z,99.90
2022-09-16T09:27:34.543Z,99.90
2022-09-16T09:30:22.574Z,99.90
2022-09-16T09:33:44.193Z,99.90
2022-09-16T09:36:44.649Z,99.90
2022-09-16T09:39:42.244Z,99.90
2022-09-16T09:42:27.342Z,99.90
2022-09-16T09:45:18.125Z,99.90
2022-09-16T09:48:23.126Z,99.90
2022-09-16T09:50:55.516Z,99.90
2022-09-16T09:53:40.254Z,99.90
2022-09-16T09:56:34.043Z,99.90
2022-09-16T09:59:43.107Z,99.90
2022-09-16T10:02:20.178Z,99.90
2022-09-16T10:04:50.745Z,99.90
2022-09-16T10:07:23.431Z,99.90
2022-09-16T10:10:19.976Z,99.90
2022-09-16T10:12:54.371Z,99.90
2022-09-16T10:15:30.847Z,99.90
2022-09-16T10:18:05.084Z,99.90
2022-09-16T10:20:41.616Z,99.90
2022-09-16T10:23:29.875Z,99.90
2022-09-16T10:26:22.232Z,99.90
2022-09-16T10:29:19.140Z,99.90
2022-09-16T10:31:49.865Z,99.90
2022-09-16T10:34:41.565Z,99.90
2022-09-16T10:37:22.474Z,99.90
2022-09-16T10:39:59.066Z,99.90
2022-09-16T10:42:33.363Z,99.90
2022-09-16T10:45:28.740Z,99.90
2022-09-16T10:48:04.941Z,99.90
2022-09-16T10:50:36.944Z,99.90
2022-09-16T10:53:26.004Z,99.90
2022-09-16T10:56:02.024Z,99.90
2022-09-16T10:58:32.393Z,99.90
2022-09-16T11:01:37.052Z,99.90
2022-09-16T11:04:47.075Z,99.90
2022-09-16T11:07:47.636Z,99.90
2022-09-16T11:10:39.875Z,99.90
2022-09-16T11:13:27.424Z,99.90
2022-09-16T11:16:36.754Z,99.90
2022-09-16T11:19:22.684Z,99.90
2022-09-16T11:22:12.344Z,99.90
2022-09-16T11:25:16.426Z,99.90
2022-09-16T11:28:29.351Z,99.90
2022-09-16T11:31:27.216Z,99.90
2022-09-16T11:34:15.303Z,99.90
2022-09-16T11:37:14.204Z,99.90
2022-09-16T11:40:10.290Z,99.90
2022-09-16T11:42:58.060Z,99.90
2022-09-16T11:46:00.033Z,99.90
2022-09-16T11:48:58.227Z,99.90
2022-09-16T11:52:06.521Z,99.90
2022-09-16T11:55:01.934Z,99.90
2022-09-16T11:57:43.417Z,99.90
2022-09-16T12:00:19.232Z,99.90
2022-09-16T12:03:20.033Z,99.90
2022-09-16T12:05:58.564Z,99.90
2022-09-16T12:08:52.284Z,99.90
2022-09-16T12:11:41.663Z,99.90
2022-09-16T12:14:27.952Z,99.90
2022-09-16T12:17:08.581Z,99.90
2022-09-16T12:19:59.801Z,99.90
2022-09-16T12:22:43.212Z,99.90
2022-09-16T12:25:28.934Z,99.90
2022-09-16T12:28:31.362Z,99.90
2022-09-16T12:31:39.261Z,99.90
2022-09-16T12:34:19.841Z,99.90
2022-09-16T12:36:56.224Z,99.90
2022-09-16T12:39:26.382Z,99.90
2022-09-16T12:42:37.794Z,99.90
2022-09-16T12:45:46.678Z,99.90
2022-09-16T12:48:35.823Z,99.90
2022-09-16T12:51:39.534Z,99.90
2022-09-16T12:55:07.194Z,99.90
2022-09-16T12:58:05.541Z,99.90
2022-09-16T13:01:02.037Z,99.90
2022-09-16T13:03:39.434Z,99.90
2022-09-16T13:06:29.291Z,99.90
2022-09-16T13:09:17.606Z,99.90
2022-09-16T13:12:36.830Z,99.90
2022-09-16T13:15:09.762Z,99.90
2022-09-16T13:17:42.486Z,99.90
2022-09-16T13:20:35.857Z,99.90
2022-09-16T13:23:19.092Z,99.90
2022-09-16T13:26:11.715Z,99.90
2022-09-16T13:28:55.813Z,99.90
2022-09-16T13:31:39.421Z,99.90
2022-09-16T13:34:26.556Z,99.90
2022-09-16T13:36:57.106Z,99.90
2022-09-16T13:39:37.246Z,99.90
2022-09-16T13:42:22.504Z,99.90
2022-09-16T13:45:05.205Z,99.90
2022-09-16T13:47:47.593Z,99.90
2022-09-16T13:50:22.975Z,99.90
2022-09-16T13:53:02.016Z,99.90
2022-09-16T13:55:33.879Z,99.90
2022-09-16T13:58:18.976Z,99.90
2022-09-16T14:01:15.222Z,99.90
2022-09-16T14:04:21.212Z,99.90
2022-09-16T14:07:31.733Z,99.90
2022-09-16T14:10:11.686Z,99.90
2022-09-16T14:13:02.925Z,99.90
2022-09-16T14:15:39.155Z,99.90
2022-09-16T14:18:13.094Z,99.90
2022-09-16T14:21:05.494Z,99.90
2022-09-16T14:23:39.926Z,99.90
2022-09-16T14:26:22.514Z,99.90
2022-09-16T14:29:03.423Z,99.90
2022-09-16T14:31:35.610Z,99.90
2022-09-16T14:34:13.686Z,99.90
2022-09-16T14:36:44.963Z,99.90
2022-09-16T14:39:19.297Z,99.90
2022-09-16T14:42:08.415Z,99.90
2022-09-16T14:44:55.955Z,99.90
2022-09-16T14:47:51.778Z,99.90
2022-09-16T14:50:34.375Z,99.90
2022-09-16T14:53:06.947Z,99.90
2022-09-16T14:55:43.055Z,99.90
2022-09-16T14:58:18.124Z,99.90
2022-09-16T15:01:10.332Z,99.90
2022-09-16T15:03:54.763Z,99.90
2022-09-16T15:06:31.092Z,99.90
2022-09-16T15:09:15.446Z,99.90
2022-09-16T15:11:57.112Z,99.90
2022-09-16T15:14:30.253Z,99.90
2022-09-16T15:17:06.653Z,99.90
2022-09-16T15:19:44.866Z,99.90
2022-09-16T15:22:18.194Z,99.90
2022-09-16T15:25:00.386Z,99.90
2022-09-16T15:27:36.266Z,99.90
2022-09-16T15:30:07.555Z,99.90
2022-09-16T15:32:47.263Z,99.90
2022-09-16T15:35:31.165Z,99.90
2022-09-16T15:38:17.606Z,99.90
2022-09-16T15:40:48.466Z,99.90
2022-09-16T15:43:36.126Z,99.90
2022-09-16T15:46:14.864Z,99.90
2022-09-16T15:48:57.336Z,99.90
2022-09-16T15:51:35.753Z,99.90
2022-09-16T15:54:32.927Z,99.90
2022-09-16T15:57:27.423Z,99.90
2022-09-16T16:00:14.624Z,99.90
2022-09-16T16:03:16.805Z,99.90
2022-09-16T16:05:55.344Z,99.90
2022-09-16T16:08:52.696Z,99.90
2022-09-16T16:11:27.543Z,99.90
2022-09-16T16:14:01.759Z,99.90
2022-09-16T16:16:55.229Z,99.90
2022-09-16T16:19:27.942Z,99.90
2022-09-16T16:22:09.816Z,99.90
2022-09-16T16:24:50.185Z,99.90
2022-09-16T16:27:19.987Z,99.90
2022-09-16T16:29:50.068Z,99.90
2022-09-16T16:32:23.687Z,99.90
2022-09-16T16:34:53.754Z,99.90
2022-09-16T16:37:45.013Z,99.90
2022-09-16T16:40:15.278Z,99.90
2022-09-16T16:42:45.989Z,99.90
2022-09-16T16:45:19.112Z,99.90
2022-09-16T16:47:49.414Z,99.90
2022-09-16T16:50:19.384Z,99.90
2022-09-16T16:52:58.073Z,99.90
2022-09-16T16:55:34.303Z,99.90
2022-09-16T16:58:04.423Z,99.90
2022-09-16T17:00:37.516Z,99.90
2022-09-16T17:03:08.683Z,99.90
2022-09-16T17:05:39.893Z,99.90
2022-09-16T17:08:11.314Z,99.90
2022-09-16T17:10:43.747Z,99.90
2022-09-16T17:13:13.955Z,99.90
2022-09-16T17:15:44.066Z,99.90
2022-09-16T17:18:16.023Z,99.90
2022-09-16T17:20:46.104Z,99.90
2022-09-16T17:23:18.166Z,99.90
2022-09-16T17:25:53.003Z,99.90
2022-09-16T17:28:23.666Z,99.90
2022-09-16T17:30:54.428Z,99.90
2022-09-16T17:33:27.977Z,99.90
2022-09-16T17:36:06.939Z,99.90
2022-09-16T17:38:37.145Z,99.90
2022-09-16T17:41:16.017Z,99.90
2022-09-16T17:43:47.482Z,99.90
2022-09-16T17:46:24.075Z,99.90
2022-09-16T17:48:55.724Z,99.90
2022-09-16T17:51:25.454Z,99.90
2022-09-16T17:53:55.282Z,99.90
2022-09-16T17:56:28.516Z,99.90
2022-09-16T17:58:58.773Z,99.90
2022-09-16T18:01:39.647Z,99.90
2022-09-16T18:04:10.337Z,99.90
2022-09-16T18:06:47.533Z,99.90
2022-09-16T18:09:18.944Z,99.90
2022-09-16T18:11:50.765Z,99.90
2022-09-16T18:14:23.441Z,99.90
2022-09-16T18:16:53.938Z,99.90
2022-09-16T18:19:24.058Z,99.90
2022-09-16T18:21:54.366Z,99.90
2022-09-16T18:24:24.816Z,99.90
2022-09-16T18:26:57.493Z,99.90
2022-09-16T18:29:27.277Z,99.90
2022-09-16T18:31:57.405Z,99.90
2022-09-16T18:34:30.066Z,99.90
2022-09-16T18:37:03.173Z,99.90
2022-09-16T18:39:32.904Z,99.90
2022-09-16T18:42:02.545Z,99.90
2022-09-16T18:44:33.227Z,99.90
2022-09-16T18:47:03.164Z,99.90
2022-09-16T18:49:32.892Z,99.90
2022-09-16T18:52:02.593Z,99.90
2022-09-16T18:54:32.604Z,99.90
2022-09-16T18:57:03.855Z,99.90
2022-09-16T18:59:35.873Z,99.90
2022-09-16T19:02:06.037Z,99.90
2022-09-16T19:04:41.445Z,99.90
2022-09-16T19:07:17.865Z,99.90
2022-09-16T19:09:48.404Z,99.90
2022-09-16T19:12:18.604Z,99.90
2022-09-16T19:14:48.977Z,99.90
2022-09-16T19:17:18.618Z,99.90
2022-09-16T19:19:52.433Z,99.90
2022-09-16T19:22:24.137Z,99.90
2022-09-16T19:24:57.195Z,99.90
2022-09-16T19:27:27.156Z,99.90
2022-09-16T19:29:56.802Z,99.90
2022-09-16T19:32:26.583Z,99.90
2022-09-16T19:34:56.589Z,99.90
2022-09-16T19:37:26.443Z,99.90
2022-09-16T19:39:56.221Z,99.90
2022-09-16T19:42:27.007Z,99.90
2022-09-16T19:44:56.612Z,99.90
2022-09-16T19:47:26.375Z,99.90
2022-09-16T19:49:55.993Z,99.90
2022-09-16T19:52:25.558Z,99.90
2022-09-16T19:54:55.458Z,99.90
2022-09-16T19:57:25.433Z,99.90
2022-09-16T19:59:55.571Z,99.90
2022-09-16T20:02:26.104Z,99.90
2022-09-16T20:04:56.314Z,99.90
2022-09-16T20:07:26.295Z,99.90
2022-09-16T20:09:56.324Z,99.90
2022-09-16T20:12:26.304Z,99.90
2022-09-16T20:14:56.273Z,99.90
2022-09-16T20:17:26.317Z,99.90
2022-09-16T20:19:57.417Z,99.90
2022-09-16T20:22:27.826Z,99.90
2022-09-16T20:25:19.073Z,99.90
2022-09-16T20:27:48.083Z,99.90
2022-09-16T20:30:20.656Z,99.90
2022-09-16T20:32:50.467Z,99.90
2022-09-16T20:35:20.146Z,99.90
2022-09-16T20:37:49.764Z,99.90
2022-09-16T20:40:19.435Z,99.90
2022-09-16T20:42:49.217Z,99.90
2022-09-16T20:45:18.963Z,99.90
2022-09-16T20:47:53.853Z,99.90
2022-09-16T20:50:23.422Z,99.90
2022-09-16T20:52:53.083Z,99.90
2022-09-16T20:55:23.154Z,99.90
2022-09-16T20:57:53.083Z,99.90
2022-09-16T21:00:24.115Z,99.90
2022-09-16T21:02:56.383Z,99.90
2022-09-16T21:05:26.396Z,99.90
2022-09-16T21:07:59.613Z,99.90
2022-09-16T21:10:29.505Z,99.90
2022-09-16T21:12:59.638Z,99.90
2022-09-16T21:15:30.004Z,99.90
2022-09-16T21:17:59.921Z,99.90
2022-09-16T21:20:29.976Z,99.90
2022-09-16T21:23:00.090Z,99.90
2022-09-16T21:25:31.112Z,99.90
2022-09-16T21:28:01.792Z,99.90
2022-09-16T21:30:32.254Z,99.90
2022-09-16T21:33:02.247Z,99.90
2022-09-16T21:35:32.246Z,99.90
2022-09-16T21:38:02.273Z,99.90
2022-09-16T21:40:34.456Z,99.90
2022-09-16T21:43:08.945Z,99.90
2022-09-16T21:45:46.410Z,99.90
2022-09-16T21:48:18.223Z,99.90
2022-09-16T21:50:49.687Z,99.90
2022-09-16T21:53:19.913Z,99.90
2022-09-16T21:55:50.175Z,99.90
2022-09-16T21:58:19.697Z,99.90
2022-09-16T22:00:49.434Z,99.90
2022-09-16T22:03:19.049Z,99.90
2022-09-16T22:05:48.587Z,99.90
2022-09-16T22:08:18.245Z,99.90
2022-09-16T22:10:47.864Z,99.90
2022-09-16T22:13:17.366Z,99.90
2022-09-16T22:15:53.885Z,99.90
2022-09-16T22:18:23.505Z,99.90
2022-09-16T22:20:54.143Z,99.90
2022-09-16T22:23:23.926Z,99.90
2022-09-16T22:25:53.542Z,99.90
2022-09-16T22:28:23.476Z,99.90
2022-09-16T22:30:53.183Z,99.90
2022-09-16T22:33:22.925Z,99.90
2022-09-16T22:35:53.425Z,99.90
2022-09-16T22:38:23.293Z,99.90
2022-09-16T22:40:53.375Z,99.90
2022-09-16T22:43:23.413Z,99.90
2022-09-16T22:45:53.360Z,99.90
2022-09-16T22:48:23.742Z,99.90
2022-09-16T22:51:00.263Z,99.90
2022-09-16T22:53:31.397Z,99.90
2022-09-16T22:56:08.395Z,99.90
2022-09-16T22:58:38.378Z,99.90
2022-09-16T23:01:18.059Z,99.90
2022-09-16T23:03:49.043Z,99.90
2022-09-16T23:06:19.038Z,99.90
2022-09-16T23:08:49.170Z,99.90
2022-09-16T23:11:22.743Z,99.90
2022-09-16T23:13:54.473Z,99.90
2022-09-16T23:16:28.492Z,99.90
2022-09-16T23:19:02.445Z,99.90
2022-09-16T23:21:33.002Z,99.90
2022-09-16T23:24:04.943Z,99.90
2022-09-16T23:26:38.822Z,99.90
2022-09-16T23:29:11.145Z,99.90
2022-09-16T23:31:43.301Z,99.90
2022-09-16T23:34:24.061Z,99.90
2022-09-16T23:36:54.065Z,99.90
2022-09-16T23:39:24.074Z,99.90
2022-09-16T23:41:54.181Z,99.90
2022-09-16T23:44:26.223Z,99.90
2022-09-16T23:46:56.161Z,99.90
2022-09-16T23:49:26.423Z,99.90
2022-09-16T23:51:56.397Z,99.90
2022-09-16T23:54:26.524Z,99.90
2022-09-16T23:56:56.586Z,99.90
2022-09-16T23:59:26.202Z,99.90
